createdAt,value
2019-04-05T00:01:43.880Z,5.55
2019-04-05T00:05:45.856Z,5.45
2019-04-05T00:09:47.810Z,5.43
2019-04-05T00:13:49.769Z,5.43
2019-04-05T00:17:51.651Z,5.51
2019-04-05T00:21:53.623Z,5.42
2019-04-05T00:25:55.618Z,5.46
2019-04-05T00:29:57.513Z,5.43
2019-04-05T00:33:59.413Z,5.49
2019-04-05T00:38:01.767Z,5.51
2019-04-05T00:42:03.656Z,5.55
2019-04-05T00:46:05.611Z,5.48
2019-04-05T00:50:08.720Z,5.42
2019-04-05T00:54:10.611Z,5.43
2019-04-05T00:58:12.549Z,5.55
2019-04-05T01:02:14.521Z,5.66
2019-04-05T01:06:16.496Z,5.69
2019-04-05T01:10:19.001Z,5.64
2019-04-05T01:14:22.429Z,5.74
2019-04-05T01:18:24.338Z,5.71
2019-04-05T01:22:28.724Z,5.58
2019-04-05T01:26:31.845Z,5.59
2019-04-05T01:30:34.088Z,5.67
2019-04-05T01:34:36.334Z,5.74
2019-04-05T01:38:38.229Z,5.65
2019-04-05T01:42:40.876Z,5.62
2019-04-05T01:46:43.027Z,5.68
2019-04-05T01:50:44.993Z,5.67
2019-04-05T01:54:47.151Z,5.59
2019-04-05T01:58:49.049Z,5.51
2019-04-05T02:02:50.971Z,5.52
2019-04-05T02:06:53.280Z,5.55
2019-04-05T02:10:56.374Z,5.45
2019-04-05T02:14:58.258Z,5.46
2019-04-05T02:19:00.216Z,5.46
2019-04-05T02:23:02.279Z,5.46
2019-04-05T02:27:04.575Z,5.47
2019-04-05T02:31:06.455Z,5.44
2019-04-05T02:35:09.592Z,5.40
2019-04-05T02:39:11.575Z,5.46
2019-04-05T02:43:18.098Z,5.47
2019-04-05T02:47:20.935Z,5.50
2019-04-05T02:51:27.121Z,5.60
2019-04-05T02:55:30.426Z,5.57
2019-04-05T02:59:34.622Z,5.54
2019-04-05T03:03:36.692Z,5.37
2019-04-05T03:07:38.654Z,5.39
2019-04-05T03:11:41.555Z,5.40
2019-04-05T03:15:44.052Z,5.36
2019-04-05T03:19:47.970Z,5.43
2019-04-05T03:23:51.794Z,5.41
2019-04-05T03:27:54.120Z,5.43
2019-04-05T03:31:56.266Z,5.38
2019-04-05T03:35:58.585Z,5.37
2019-04-05T03:40:01.431Z,5.46
2019-04-05T03:44:03.527Z,5.47
2019-04-05T03:48:05.670Z,5.39
2019-04-05T03:52:07.981Z,5.42
2019-04-05T03:56:10.201Z,5.35
2019-04-05T04:00:13.097Z,5.43
2019-04-05T04:04:15.063Z,5.41
2019-04-05T04:08:17.399Z,5.37
2019-04-05T04:12:19.559Z,5.41
2019-04-05T04:16:22.689Z,5.39
2019-04-05T04:20:38.425Z,5.39
2019-04-05T04:24:40.460Z,5.41
2019-04-05T04:28:42.437Z,5.39
2019-04-05T04:32:44.619Z,5.43
2019-04-05T04:36:46.690Z,5.43
2019-04-05T04:40:48.920Z,5.52
2019-04-05T04:44:50.884Z,5.45
2019-04-05T04:48:54.457Z,5.44
2019-04-05T04:52:56.971Z,5.42
2019-04-05T04:56:59.269Z,5.36
2019-04-05T05:01:01.858Z,5.39
2019-04-05T05:05:05.803Z,5.42
2019-04-05T05:09:08.353Z,5.40
2019-04-05T05:13:10.433Z,5.41
2019-04-05T05:17:12.500Z,5.39
2019-04-05T05:21:14.827Z,5.41
2019-04-05T05:25:17.254Z,5.43
2019-04-05T05:29:19.851Z,5.45
2019-04-05T05:33:22.881Z,5.37
2019-04-05T05:37:25.399Z,5.45
2019-04-05T05:41:27.293Z,5.50
2019-04-05T05:45:29.335Z,5.47
2019-04-05T05:49:31.273Z,5.48
2019-04-05T05:53:33.345Z,5.48
2019-04-05T05:57:35.229Z,5.52
2019-04-05T06:01:37.129Z,5.57
2019-04-05T06:05:39.032Z,5.55
2019-04-05T06:09:41.214Z,5.74
2019-04-05T06:13:43.112Z,5.76
2019-04-05T06:17:45.015Z,5.72
2019-04-05T06:21:46.900Z,5.73
2019-04-05T06:25:48.805Z,5.74
2019-04-05T06:29:50.886Z,5.76
2019-04-05T06:33:52.766Z,5.79
2019-04-05T06:37:55.906Z,5.74
2019-04-05T06:41:57.868Z,5.64
2019-04-05T06:45:59.791Z,5.83
2019-04-05T06:50:02.443Z,5.70
2019-04-05T06:54:04.324Z,5.76
2019-04-05T06:58:06.269Z,5.59
2019-04-05T07:02:08.324Z,5.77
2019-04-05T07:06:10.237Z,5.91
2019-04-05T07:10:12.576Z,6.06
2019-04-05T07:14:14.657Z,6.06
2019-04-05T07:18:17.467Z,6.09
2019-04-05T07:22:33.486Z,6.19
2019-04-05T07:26:23.050Z,6.42
2019-04-05T07:30:25.083Z,6.46
2019-04-05T07:34:26.987Z,6.53
2019-04-05T07:38:28.913Z,6.66
2019-04-05T07:42:30.815Z,6.70
2019-04-05T07:46:32.696Z,6.75
2019-04-05T07:50:34.605Z,6.65
2019-04-05T07:54:36.524Z,6.51
2019-04-05T07:58:38.425Z,6.57
2019-04-05T08:02:40.319Z,6.72
2019-04-05T08:06:44.319Z,6.75
2019-04-05T08:10:47.362Z,6.89
2019-04-05T08:14:49.996Z,6.93
2019-04-05T08:18:57.666Z,6.95
2019-04-05T08:22:56.084Z,6.88
2019-04-05T08:26:57.990Z,6.88
2019-04-05T08:30:59.968Z,6.94
2019-04-05T08:35:01.883Z,6.90
2019-04-05T08:39:06.247Z,6.97
2019-04-05T08:43:08.156Z,7.04
2019-04-05T08:47:10.058Z,7.12
2019-04-05T08:51:11.959Z,7.27
2019-04-05T08:55:14.098Z,7.31
2019-04-05T08:59:16.010Z,7.40
2019-04-05T09:03:17.924Z,7.34
2019-04-05T09:07:19.829Z,7.36
2019-04-05T09:11:21.724Z,7.57
2019-04-05T09:15:23.622Z,7.60
2019-04-05T09:19:25.503Z,7.73
2019-04-05T09:23:27.463Z,7.69
2019-04-05T09:27:29.427Z,7.53
2019-04-05T09:31:31.337Z,7.62
2019-04-05T09:35:33.228Z,7.58
2019-04-05T09:39:35.133Z,7.41
2019-04-05T09:43:37.132Z,7.48
2019-04-05T09:47:39.041Z,7.49
2019-04-05T09:51:40.949Z,7.57
2019-04-05T09:55:42.862Z,7.56
2019-04-05T09:59:44.772Z,7.55
2019-04-05T10:03:47.735Z,7.67
2019-04-05T10:07:55.223Z,7.89
2019-04-05T10:11:53.729Z,8.15
2019-04-05T10:15:56.292Z,8.48
2019-04-05T10:19:58.654Z,8.79
2019-04-05T10:24:00.557Z,8.72
2019-04-05T10:28:02.446Z,8.77
2019-04-05T10:32:04.347Z,8.81
2019-04-05T10:36:06.330Z,8.87
2019-04-05T10:40:08.750Z,9.00
2019-04-05T10:44:12.341Z,9.14
2019-04-05T10:48:14.249Z,9.31
2019-04-05T10:52:16.148Z,9.46
2019-04-05T10:56:18.062Z,9.35
2019-04-05T11:00:21.469Z,9.29
2019-04-05T11:04:23.371Z,9.31
2019-04-05T11:08:25.267Z,9.46
2019-04-05T11:12:27.167Z,9.65
2019-04-05T11:16:29.069Z,9.70
2019-04-05T11:20:31.040Z,9.69
2019-04-05T11:24:32.929Z,9.62
2019-04-05T11:28:34.828Z,9.85
2019-04-05T11:32:37.895Z,10.28
2019-04-05T11:36:40.740Z,10.85
2019-04-05T11:40:43.866Z,11.38
2019-04-05T11:44:48.987Z,11.76
2019-04-05T11:48:51.241Z,11.36
2019-04-05T11:52:53.157Z,11.30
2019-04-05T11:56:56.050Z,10.99
2019-04-05T12:01:17.616Z,11.03
2019-04-05T12:05:20.341Z,11.07
2019-04-05T12:09:23.140Z,10.91
2019-04-05T12:13:25.067Z,10.64
2019-04-05T12:17:26.974Z,10.62
2019-04-05T12:21:28.890Z,10.48
2019-04-05T12:25:33.432Z,10.57
2019-04-05T12:29:34.419Z,10.64
2019-04-05T12:33:36.336Z,10.51
2019-04-05T12:37:49.669Z,10.61
2019-04-05T12:41:44.907Z,10.65
2019-04-05T12:45:45.559Z,10.90
2019-04-05T12:49:47.594Z,11.24
2019-04-05T12:53:49.507Z,11.26
2019-04-05T12:57:51.436Z,11.16
2019-04-05T13:01:53.351Z,11.12
2019-04-05T13:05:57.269Z,11.36
2019-04-05T13:09:59.374Z,11.37
2019-04-05T13:14:01.633Z,11.46
2019-04-05T13:18:03.549Z,11.35
2019-04-05T13:22:05.529Z,11.25
2019-04-05T13:26:11.348Z,11.35
2019-04-05T13:30:12.176Z,11.32
2019-04-05T13:34:14.095Z,11.65
2019-04-05T13:38:16.011Z,11.46
2019-04-05T13:42:18.016Z,11.69
2019-04-05T13:46:22.736Z,12.05
2019-04-05T13:50:23.558Z,12.19
2019-04-05T13:54:25.469Z,12.49
2019-04-05T13:58:27.385Z,12.51
2019-04-05T14:02:29.293Z,12.48
2019-04-05T14:06:31.274Z,12.56
2019-04-05T14:10:33.230Z,12.69
2019-04-05T14:14:35.237Z,12.92
2019-04-05T14:18:37.197Z,13.33
2019-04-05T14:22:39.129Z,13.61
2019-04-05T14:26:43.490Z,14.14
2019-04-05T14:30:44.731Z,14.38
2019-04-05T14:34:46.669Z,14.47
2019-04-05T14:43:12.803Z,14.56
2019-04-05T14:47:14.588Z,14.97
2019-04-05T14:51:16.508Z,15.11
2019-04-05T14:55:18.527Z,15.10
2019-04-05T14:59:20.513Z,14.98
2019-04-05T15:03:22.451Z,14.98
2019-04-05T15:07:24.371Z,14.97
2019-04-05T15:11:29.450Z,14.88
2019-04-05T15:15:31.030Z,14.70
2019-04-05T15:19:32.948Z,14.41
2019-04-05T15:23:34.855Z,14.28
2019-04-05T15:27:36.782Z,14.18
2019-04-05T15:31:39.656Z,14.27
2019-04-05T15:35:41.650Z,14.14
2019-04-05T15:39:44.500Z,14.18
2019-04-05T15:43:46.554Z,14.17
2019-04-05T15:47:48.476Z,13.84
2019-04-05T15:51:50.386Z,13.83
2019-04-05T15:55:52.329Z,13.88
2019-04-05T15:59:54.257Z,13.81
2019-04-05T16:03:56.262Z,13.50
2019-04-05T16:07:58.187Z,13.53
2019-04-05T16:12:00.284Z,13.26
2019-04-05T16:16:02.182Z,13.12
2019-04-05T16:20:09.422Z,13.20
2019-04-05T16:24:11.341Z,13.28
2019-04-05T16:28:14.238Z,13.27
2019-04-05T16:32:16.153Z,13.15
2019-04-05T16:36:19.149Z,13.04
2019-04-05T16:40:21.667Z,12.88
2019-04-05T16:44:23.587Z,12.71
2019-04-05T16:48:25.500Z,12.68
2019-04-05T16:52:27.423Z,12.39
2019-04-05T16:56:29.987Z,12.22
2019-04-05T17:00:31.997Z,11.85
2019-04-05T17:04:33.902Z,11.67
2019-04-05T17:08:35.830Z,11.53
2019-04-05T17:12:37.745Z,11.46
2019-04-05T17:16:39.689Z,11.48
2019-04-05T17:20:41.952Z,11.29
2019-04-05T17:24:43.947Z,11.01
2019-04-05T17:28:46.163Z,10.97
2019-04-05T17:32:48.087Z,10.74
2019-04-05T17:36:50.000Z,10.37
2019-04-05T17:40:51.909Z,10.18
2019-04-05T17:44:53.810Z,10.18
2019-04-05T17:48:56.312Z,10.18
2019-04-05T17:53:10.886Z,10.02
2019-04-05T17:57:01.885Z,9.92
2019-04-05T18:01:04.232Z,9.79
2019-04-05T18:05:07.755Z,9.63
2019-04-05T18:09:09.732Z,9.54
2019-04-05T18:13:11.711Z,9.44
2019-04-05T18:17:13.695Z,9.32
2019-04-05T18:21:15.593Z,9.27
2019-04-05T18:25:17.508Z,9.12
2019-04-05T18:29:19.407Z,9.02
2019-04-05T18:33:22.282Z,8.86
2019-04-05T18:37:24.176Z,8.62
2019-04-05T18:41:26.106Z,8.50
2019-04-05T18:45:29.063Z,8.52
2019-04-05T18:49:30.963Z,8.36
2019-04-05T18:53:37.954Z,8.33
2019-04-05T18:57:36.481Z,8.27
2019-04-05T19:01:38.381Z,8.12
2019-04-05T19:05:40.275Z,7.98
2019-04-05T19:09:42.181Z,7.93
2019-04-05T19:13:44.096Z,7.82
2019-04-05T19:17:46.074Z,7.73
2019-04-05T19:21:47.969Z,7.67
2019-04-05T19:25:49.879Z,7.64
2019-04-05T19:29:51.780Z,7.48
2019-04-05T19:50:10.262Z,7.08
2019-04-05T19:54:12.163Z,6.60
2019-04-05T19:58:14.070Z,6.88
2019-04-05T20:02:15.964Z,6.29
2019-04-05T20:06:17.866Z,6.92
2019-04-05T20:10:19.775Z,6.87
2019-04-05T20:14:21.680Z,6.92
2019-04-05T20:18:23.577Z,6.85
2019-04-05T20:22:25.465Z,6.58
2019-04-05T20:26:27.382Z,6.50
2019-04-05T20:30:29.392Z,6.55
2019-04-05T20:34:31.318Z,6.54
2019-04-05T20:38:33.205Z,6.56
2019-04-05T20:42:35.095Z,6.55
2019-04-05T20:46:36.993Z,6.50
2019-04-05T20:50:38.894Z,6.43
2019-04-05T20:54:40.820Z,6.42
2019-04-05T20:58:42.720Z,6.38
2019-04-05T21:02:44.607Z,6.27
2019-04-05T21:06:46.512Z,6.22
2019-04-05T21:10:48.430Z,6.21
2019-04-05T21:14:50.377Z,6.11
2019-04-05T21:18:52.279Z,6.08
2019-04-05T21:22:56.613Z,6.07
2019-04-05T21:26:58.516Z,5.95
2019-04-05T21:31:00.418Z,5.80
2019-04-05T21:35:02.397Z,5.77
2019-04-05T21:39:06.331Z,5.83
2019-04-05T21:43:08.216Z,5.75
2019-04-05T21:47:10.151Z,5.66
2019-04-05T21:51:12.063Z,5.56
2019-04-05T21:55:14.009Z,5.51
2019-04-05T21:59:15.914Z,5.42
2019-04-05T22:03:17.810Z,5.36
2019-04-05T22:07:19.713Z,5.38
2019-04-05T22:11:21.629Z,5.29
2019-04-05T22:15:24.497Z,5.26
2019-04-05T22:19:26.411Z,5.20
2019-04-05T22:23:28.299Z,5.19
2019-04-05T22:27:30.204Z,5.21
2019-04-05T22:31:32.100Z,5.09
2019-04-05T22:35:34.278Z,5.07
2019-04-05T22:39:36.184Z,5.03
2019-04-05T22:43:38.066Z,5.01
2019-04-05T22:47:39.963Z,5.08
2019-04-05T22:51:41.940Z,5.24
2019-04-05T22:55:43.840Z,5.19
2019-04-05T22:59:45.745Z,5.05
2019-04-05T23:03:47.630Z,5.09
2019-04-05T23:07:49.532Z,5.11
2019-04-05T23:11:51.450Z,5.06
2019-04-05T23:15:53.343Z,5.00
2019-04-05T23:19:56.467Z,4.88
2019-04-05T23:23:58.380Z,4.94
2019-04-05T23:28:00.403Z,4.91
2019-04-05T23:32:03.344Z,4.88
2019-04-05T23:36:05.676Z,4.90
2019-04-05T23:40:20.783Z,4.81
2019-04-05T23:44:22.701Z,4.89
2019-04-05T23:48:24.601Z,4.72
2019-04-05T23:52:26.499Z,4.60
2019-04-05T23:56:28.401Z,4.51
